Time;durP1;ratioP1;P1;durP2;ratioP2;P2;SDS_P1;SDS_P2;PMS_P1;PMS_P2;Temp;Humidity;BMP_temperature;BMP_pressure;BME280_temperature;BME280_humidity;BME280_pressure;Samples;Min_cycle;Max_cycle;Signal;HPM_P1;HPM_P2
2023/04/19 00:01:16;;;;;;;12.35;8.00;;;;;;;6.31;78.91;102138.44;7397763;19;20023;-68
2023/04/19 00:03:47;;;;;;;13.60;8.35;;;;;;;6.28;78.77;102139.25;7395819;19;20041;-67
2023/04/19 00:06:16;;;;;;;14.40;8.18;;;;;;;6.27;78.79;102136.59;7398060;19;20018;-66
2023/04/19 00:08:45;;;;;;;13.25;7.35;;;;;;;6.26;78.76;102132.25;7397247;19;20026;-66
2023/04/19 00:11:13;;;;;;;11.65;7.45;;;;;;;6.24;77.72;102132.19;7397465;19;20027;-67
2023/04/19 00:13:42;;;;;;;12.90;6.90;;;;;;;6.19;76.79;102128.63;7395947;19;20035;-67
2023/04/19 00:16:10;;;;;;;12.90;7.55;;;;;;;6.16;77.43;102126.00;7396407;19;20022;-67
2023/04/19 00:18:39;;;;;;;13.55;7.18;;;;;;;6.13;76.69;102123.31;7395452;19;20047;-67
2023/04/19 00:21:10;;;;;;;9.88;6.65;;;;;;;6.12;77.37;102121.56;7396772;19;20010;-69
2023/04/19 00:23:39;;;;;;;13.68;6.97;;;;;;;6.12;76.80;102121.56;7394701;19;20024;-69
2023/04/19 00:26:07;;;;;;;10.20;6.30;;;;;;;6.10;76.11;102115.44;7395916;19;20023;-69
2023/04/19 00:28:36;;;;;;;11.32;5.50;;;;;;;6.09;76.48;102119.78;7396537;19;20545;-66
2023/04/19 00:31:04;;;;;;;10.90;6.05;;;;;;;6.08;76.12;102117.13;7396805;19;20037;-66
2023/04/19 00:33:34;;;;;;;9.18;6.30;;;;;;;6.06;75.92;102116.25;7394946;19;20011;-69
2023/04/19 00:36:02;;;;;;;11.45;6.65;;;;;;;6.06;76.01;102114.50;7395892;19;20019;-66
2023/04/19 00:38:34;;;;;;;10.88;5.60;;;;;;;6.03;74.33;102109.25;7396313;19;20014;-68
2023/04/19 00:41:02;;;;;;;9.45;5.63;;;;;;;6.03;75.44;102107.50;7395440;19;20025;-66
2023/04/19 00:43:31;;;;;;;8.35;5.35;;;;;;;6.02;74.37;102105.75;7395653;19;20022;-67
2023/04/19 00:45:59;;;;;;;9.93;5.80;;;;;;;5.99;74.47;102105.72;7396334;19;20019;-67
2023/04/19 00:48:28;;;;;;;9.52;5.70;;;;;;;5.98;74.74;102109.16;7394586;19;20026;-67
2023/04/19 00:50:57;;;;;;;8.52;5.03;;;;;;;5.96;74.35;102108.19;7396227;19;20022;-67
2023/04/19 00:53:25;;;;;;;8.55;5.13;;;;;;;5.95;74.33;102101.25;7395028;19;20042;-67
2023/04/19 00:55:59;;;;;;;12.95;5.53;;;;;;;5.94;73.92;102106.41;7395446;19;20022;-67
2023/04/19 00:58:29;;;;;;;7.18;4.65;;;;;;;5.95;74.32;102106.47;7395733;19;20018;-67
2023/04/19 01:00:57;;;;;;;12.00;5.30;;;;;;;5.93;73.04;102102.94;7395936;19;20021;-67
2023/04/19 01:03:26;;;;;;;10.75;5.50;;;;;;;5.91;73.44;102099.41;7393743;19;20014;-67
2023/04/19 01:05:54;;;;;;;13.32;5.47;;;;;;;5.92;72.47;102103.78;7394041;19;20014;-67
2023/04/19 01:08:23;;;;;;;7.15;4.47;;;;;;;5.89;72.99;102095.94;7395317;19;20428;-67
2023/04/19 01:10:51;;;;;;;11.95;5.15;;;;;;;5.90;72.98;102091.59;7395577;19;20026;-67
2023/04/19 01:13:22;;;;;;;7.32;4.75;;;;;;;5.90;72.40;102092.44;7394376;19;20015;-67
2023/04/19 01:15:51;;;;;;;9.02;4.78;;;;;;;5.93;72.37;102094.25;7394696;19;20518;-68
2023/04/19 01:18:20;;;;;;;9.63;5.13;;;;;;;5.95;73.31;102098.66;7395434;19;20018;-68
2023/04/19 01:20:49;;;;;;;8.93;4.63;;;;;;;5.95;72.69;102101.25;7394951;19;20014;-68
2023/04/19 01:23:20;;;;;;;6.63;4.82;;;;;;;5.96;72.07;102091.69;7394668;19;20035;-68
2023/04/19 01:25:49;;;;;;;8.32;4.25;;;;;;;5.96;72.60;102087.34;7392778;19;20416;-68
2023/04/19 01:28:17;;;;;;;5.78;4.10;;;;;;;5.95;71.82;102088.22;7395182;19;20015;-68
2023/04/19 01:30:46;;;;;;;5.97;4.15;;;;;;;5.96;72.06;102096.91;7395037;19;20022;-68
2023/04/19 01:33:14;;;;;;;10.43;4.13;;;;;;;5.95;71.36;102092.53;7393961;19;20014;-67
2023/04/19 01:35:42;;;;;;;7.20;4.10;;;;;;;5.93;70.97;102089.91;7397428;19;20382;-67
2023/04/19 01:38:11;;;;;;;7.25;4.22;;;;;;;5.92;70.53;102084.69;7399314;19;20011;-67
2023/04/19 01:40:42;;;;;;;8.80;3.95;;;;;;;5.90;69.85;102084.63;7399481;19;20026;-68
2023/04/19 01:43:14;;;;;;;5.68;3.60;;;;;;;5.87;69.31;102081.97;7401818;19;20022;-67
2023/04/19 01:45:42;;;;;;;7.45;4.13;;;;;;;5.85;69.75;102087.16;7401965;19;20493;-67
2023/04/19 01:48:11;;;;;;;11.23;3.63;;;;;;;5.83;68.76;102082.78;7401948;19;20011;-67
2023/04/19 01:50:39;;;;;;;7.45;4.03;;;;;;;5.81;67.39;102076.66;7399376;19;20026;-67
2023/04/19 01:53:08;;;;;;;5.13;3.38;;;;;;;5.83;68.09;102082.78;7400843;19;20018;-68
2023/04/19 01:55:36;;;;;;;4.55;2.97;;;;;;;5.82;64.47;102078.41;7401531;19;20014;-68
2023/04/19 01:58:08;;;;;;;8.32;3.25;;;;;;;5.83;67.21;102074.97;7402746;19;20022;-68
2023/04/19 02:00:37;;;;;;;4.75;3.47;;;;;;;5.83;67.60;102073.22;7404661;19;20031;-68
2023/04/19 02:03:05;;;;;;;6.03;3.50;;;;;;;5.84;66.38;102071.53;7403138;19;20022;-68
2023/04/19 02:05:34;;;;;;;7.50;3.10;;;;;;;5.82;66.06;102068.88;7402438;19;20027;-68
2023/04/19 02:08:03;;;;;;;5.97;3.50;;;;;;;5.81;66.93;102068.84;7401203;19;20365;-66
2023/04/19 02:10:31;;;;;;;4.53;2.67;;;;;;;5.80;66.33;102069.69;7401028;19;20078;-66
2023/04/19 02:13:00;;;;;;;6.03;2.78;;;;;;;5.78;66.09;102068.78;7400610;19;20090;-67
2023/04/19 02:15:31;;;;;;;5.80;2.97;;;;;;;5.74;65.15;102064.34;7401147;19;20018;-66
2023/04/19 02:18:01;;;;;;;5.40;3.25;;;;;;;5.73;65.96;102070.44;7398724;19;20022;-67
2023/04/19 02:20:30;;;;;;;5.50;2.75;;;;;;;5.71;65.73;102067.78;7401090;19;20014;-66
2023/04/19 02:22:58;;;;;;;4.40;2.83;;;;;;;5.70;64.81;102069.50;7400098;19;20015;-70
2023/04/19 02:25:26;;;;;;;3.25;2.53;;;;;;;5.66;64.47;102070.31;7400512;19;20019;-69
2023/04/19 02:27:55;;;;;;;5.13;3.20;;;;;;;5.62;64.57;102076.28;7401355;19;20455;-69
2023/04/19 02:30:24;;;;;;;3.88;2.78;;;;;;;5.60;64.67;102075.38;7400375;19;20014;-68
2023/04/19 02:32:57;;;;;;;3.92;2.47;;;;;;;5.55;63.45;102070.09;7400064;19;20040;-69
2023/04/19 02:35:25;;;;;;;4.38;3.80;;;;;;;5.53;64.65;102073.50;7401118;19;20018;-69
2023/04/19 02:37:54;;;;;;;7.95;3.42;;;;;;;5.49;64.38;102072.56;7398175;19;20470;-72
2023/04/19 02:40:24;;;;;;;4.88;2.67;;;;;;;5.46;64.98;102069.91;7400022;19;20018;-68
2023/04/19 02:42:53;;;;;;;4.55;2.40;;;;;;;5.43;64.85;102072.44;7399759;19;20029;-68
2023/04/19 02:45:21;;;;;;;7.30;3.20;;;;;;;5.40;64.99;102067.16;7399970;19;20081;-68
2023/04/19 02:47:50;;;;;;;4.75;2.90;;;;;;;5.37;64.68;102074.91;7398584;19;20014;-68
2023/04/19 02:50:21;;;;;;;4.68;2.75;;;;;;;5.30;65.18;102063.50;7400215;19;20018;-68
2023/04/19 02:52:49;;;;;;;5.18;3.00;;;;;;;5.26;65.47;102060.78;7399378;19;20022;-68
2023/04/19 02:55:18;;;;;;;4.43;2.58;;;;;;;5.23;65.41;102064.19;7397401;19;20394;-68
2023/04/19 02:57:46;;;;;;;5.07;2.78;;;;;;;5.17;64.86;102062.34;7397640;19;20019;-68
2023/04/19 03:00:16;;;;;;;6.68;3.05;;;;;;;5.11;65.04;102063.94;7399299;19;20014;-69
2023/04/19 03:02:45;;;;;;;3.75;3.10;;;;;;;5.03;65.11;102069.84;7398870;19;20010;-69
2023/04/19 03:05:14;;;;;;;5.13;3.33;;;;;;;4.95;65.08;102060.97;7399145;19;20014;-67
2023/04/19 03:07:45;;;;;;;3.92;2.72;;;;;;;4.87;64.86;102063.41;7397143;19;20039;-68
2023/04/19 03:10:13;;;;;;;7.00;3.35;;;;;;;4.82;65.53;102059.81;7399863;19;20026;-67
2023/04/19 03:12:42;;;;;;;3.88;2.75;;;;;;;4.75;65.31;102062.25;7396896;19;20018;-67
2023/04/19 03:15:12;;;;;;;8.07;3.63;;;;;;;4.67;65.48;102056.88;7399022;19;20036;-67
2023/04/19 03:17:41;;;;;;;6.18;3.17;;;;;;;4.61;65.97;102054.13;7398490;19;20021;-67
2023/04/19 03:20:11;;;;;;;5.60;3.22;;;;;;;4.53;65.24;102051.34;7399281;19;20018;-67
2023/04/19 03:22:40;;;;;;;4.25;3.25;;;;;;;4.47;65.67;102048.59;7396855;19;20021;-67
2023/04/19 03:25:12;;;;;;;5.40;3.08;;;;;;;4.42;65.73;102045.88;7398926;19;20032;-67
2023/04/19 03:27:40;;;;;;;4.10;2.85;;;;;;;4.36;66.36;102046.63;7396871;19;20010;-66
2023/04/19 03:30:10;;;;;;;5.75;3.25;;;;;;;4.31;66.63;102044.72;7399048;19;20018;-66
2023/04/19 03:32:39;;;;;;;12.75;3.22;;;;;;;4.24;66.75;102038.50;7398408;19;20035;-66
2023/04/19 03:35:08;;;;;;;5.65;2.90;;;;;;;4.17;66.79;102037.47;7398566;19;20091;-67
2023/04/19 03:37:36;;;;;;;5.47;2.67;;;;;;;4.13;67.20;102039.94;7397026;19;20427;-67
2023/04/19 03:40:05;;;;;;;5.00;3.10;;;;;;;4.08;67.31;102045.03;7396067;19;20031;-66
2023/04/19 03:42:36;;;;;;;5.32;3.30;;;;;;;4.03;67.31;102050.13;7397351;19;20359;-67
2023/04/19 03:45:06;;;;;;;5.93;3.40;;;;;;;3.99;67.76;102045.66;7399225;19;20090;-67
2023/04/19 03:47:34;;;;;;;6.93;3.03;;;;;;;3.93;68.11;102042.94;7397762;19;20493;-66
2023/04/19 03:50:03;;;;;;;6.07;3.60;;;;;;;3.88;68.06;102045.38;7398495;19;20133;-65
2023/04/19 03:52:31;;;;;;;8.57;3.88;;;;;;;3.84;68.04;102047.84;7398145;19;20019;-66
2023/04/19 03:55:00;;;;;;;4.85;3.13;;;;;;;3.81;67.86;102040.00;7398286;19;20019;-65
2023/04/19 03:57:38;;;;;;;5.43;3.10;;;;;;;3.78;68.00;102040.78;7395784;19;20074;-65
2023/04/19 04:00:08;;;;;;;4.47;2.92;;;;;;;3.72;68.15;102046.69;7397249;19;20014;-65
2023/04/19 04:02:39;;;;;;;6.43;3.10;;;;;;;3.68;68.72;102031.88;7397872;19;20018;-65
2023/04/19 04:05:08;;;;;;;5.57;3.80;;;;;;;3.66;68.93;102037.84;7395452;19;20019;-65
2023/04/19 04:07:36;;;;;;;5.97;3.25;;;;;;;3.64;69.27;102034.31;7396861;19;20376;-65
2023/04/19 04:10:06;;;;;;;5.82;3.28;;;;;;;3.60;69.49;102033.34;7394867;19;20015;-66
2023/04/19 04:12:34;;;;;;;6.25;3.08;;;;;;;3.56;69.61;102034.13;7396183;19;20018;-66
2023/04/19 04:15:06;;;;;;;6.57;3.25;;;;;;;3.53;69.85;102034.91;7397210;19;20019;-66
2023/04/19 04:17:35;;;;;;;6.25;3.35;;;;;;;3.52;69.97;102032.28;7396275;19;20358;-65
2023/04/19 04:20:04;;;;;;;6.35;3.45;;;;;;;3.50;70.24;102033.94;7396339;19;20485;-65
2023/04/19 04:22:33;;;;;;;6.22;3.40;;;;;;;3.49;70.52;102032.19;7396485;19;20025;-65
2023/04/19 04:25:07;;;;;;;5.18;3.40;;;;;;;3.47;70.62;102029.53;7396904;19;20423;-66
2023/04/19 04:27:36;;;;;;;6.22;3.17;;;;;;;3.46;70.71;102029.50;7394395;19;20011;-64
2023/04/19 04:30:09;;;;;;;5.28;3.88;;;;;;;3.43;70.96;102032.91;7396398;19;20036;-65
2023/04/19 04:32:39;;;;;;;7.75;3.38;;;;;;;3.42;71.33;102039.81;7396761;19;20031;-66
2023/04/19 04:35:10;;;;;;;9.68;3.85;;;;;;;3.41;71.30;102045.84;7394334;19;20481;-66
2023/04/19 04:37:39;;;;;;;5.03;3.17;;;;;;;3.40;71.77;102041.47;7395087;19;20030;-65
2023/04/19 04:40:09;;;;;;;5.95;3.25;;;;;;;3.40;71.91;102036.28;7395675;19;20502;-65
2023/04/19 04:42:38;;;;;;;3.78;2.83;;;;;;;3.37;71.75;102038.78;7395955;19;20090;-65
2023/04/19 04:45:11;;;;;;;6.00;3.08;;;;;;;3.34;71.78;102041.28;7396038;19;20130;-65
2023/04/19 04:47:40;;;;;;;6.60;3.47;;;;;;;3.31;72.22;102037.72;7396405;19;20014;-65
2023/04/19 04:50:10;;;;;;;6.35;3.45;;;;;;;3.29;72.36;102039.41;7395930;19;20031;-65
2023/04/19 04:52:39;;;;;;;5.40;2.75;;;;;;;3.26;72.27;102035.00;7395944;19;20023;-66
2023/04/19 04:55:08;;;;;;;6.30;3.83;;;;;;;3.23;72.01;102037.50;7395519;19;20010;-66
2023/04/19 04:57:37;;;;;;;7.32;3.35;;;;;;;3.23;72.25;102037.50;7394251;19;20019;-65
2023/04/19 05:00:11;;;;;;;6.28;3.50;;;;;;;3.20;72.51;102032.25;7394981;19;20019;-65
2023/04/19 05:02:39;;;;;;;5.55;3.40;;;;;;;3.20;72.59;102034.84;7394805;19;20518;-66
2023/04/19 05:05:10;;;;;;;7.32;3.60;;;;;;;3.18;72.82;102033.91;7395490;19;20082;-66
2023/04/19 05:07:38;;;;;;;5.63;3.20;;;;;;;3.18;73.21;102033.91;7392752;19;20374;-68
2023/04/19 05:10:08;;;;;;;6.15;3.67;;;;;;;3.15;73.16;102029.50;7393752;19;20138;-65
2023/04/19 05:12:38;;;;;;;6.22;4.10;;;;;;;3.17;73.51;102026.94;7394609;19;20019;-67
2023/04/19 05:15:10;;;;;;;8.43;3.40;;;;;;;3.17;73.69;102032.13;7392730;19;20010;-65
2023/04/19 05:17:39;;;;;;;5.78;3.33;;;;;;;3.19;73.88;102026.16;7392222;19;20018;-65
2023/04/19 05:20:09;;;;;;;8.95;3.38;;;;;;;3.21;74.41;102032.28;7394043;19;20011;-66
2023/04/19 05:22:37;;;;;;;7.88;3.40;;;;;;;3.23;74.58;102025.41;7393253;19;20354;-65
2023/04/19 05:25:08;;;;;;;5.72;3.20;;;;;;;3.25;74.73;102025.47;7394537;19;20022;-67
2023/04/19 05:27:37;;;;;;;7.22;3.97;;;;;;;3.28;75.02;102024.69;7392098;19;20007;-67
2023/04/19 05:30:06;;;;;;;6.65;4.07;;;;;;;3.29;75.15;102024.72;7393380;19;20443;-66
2023/04/19 05:32:37;;;;;;;8.30;3.80;;;;;;;3.32;75.70;102024.78;7393362;19;20015;-65
2023/04/19 05:35:06;;;;;;;7.03;3.08;;;;;;;3.34;75.90;102001.50;7393069;19;20478;-66
2023/04/19 05:37:35;;;;;;;9.38;4.22;;;;;;;3.37;75.97;102007.66;7393835;19;20038;-66
2023/04/19 05:40:05;;;;;;;6.45;3.53;;;;;;;3.41;76.50;102006.91;7393888;19;20018;-65
2023/04/19 05:42:33;;;;;;;5.40;3.72;;;;;;;3.46;76.54;102003.56;7394178;19;20014;-66
2023/04/19 05:45:01;;;;;;;7.90;3.60;;;;;;;3.50;76.80;102005.41;7394047;19;20035;-64
2023/04/19 05:47:30;;;;;;;4.80;3.13;;;;;;;3.53;76.70;102005.50;7392096;19;20461;-65
2023/04/19 05:50:01;;;;;;;10.10;3.33;;;;;;;3.58;77.38;102006.50;7393337;19;20035;-65
2023/04/19 05:52:29;;;;;;;3.67;2.67;;;;;;;3.63;76.77;102006.59;7391633;19;20019;-64
2023/04/19 05:54:58;;;;;;;8.50;3.38;;;;;;;3.69;77.12;102002.47;7394378;19;20028;-64
2023/04/19 05:57:26;;;;;;;8.02;3.10;;;;;;;3.75;77.12;102002.66;7393432;19;20505;-64
2023/04/19 05:59:55;;;;;;;4.25;2.55;;;;;;;3.79;76.86;101988.03;7392152;19;20015;-65
2023/04/19 06:02:23;;;;;;;6.65;2.70;;;;;;;3.82;76.87;101990.69;7393400;19;20031;-64
2023/04/19 06:04:52;;;;;;;6.57;3.92;;;;;;;3.86;76.65;101986.47;7391201;19;20024;-64
2023/04/19 06:07:24;;;;;;;8.45;3.00;;;;;;;3.90;76.73;101975.31;7393730;19;20019;-64
2023/04/19 06:09:52;;;;;;;7.28;3.00;;;;;;;3.95;76.55;101978.03;7391537;19;20011;-64
2023/04/19 06:12:20;;;;;;;7.03;2.78;;;;;;;4.00;76.58;101982.50;7391753;19;20027;-65
2023/04/19 06:14:50;;;;;;;4.57;2.70;;;;;;;4.04;76.73;101975.66;7391381;19;20431;-65
2023/04/19 06:17:22;;;;;;;7.80;3.10;;;;;;;4.11;76.65;101981.88;7393137;19;20037;-65
2023/04/19 06:19:50;;;;;;;7.68;3.03;;;;;;;4.17;76.73;101982.03;7393110;19;20011;-64
2023/04/19 06:22:19;;;;;;;5.57;2.80;;;;;;;4.23;76.25;101969.19;7397916;19;20074;-65
2023/04/19 06:24:50;;;;;;;5.45;2.60;;;;;;;4.28;75.23;101972.78;7397968;19;20080;-65
2023/04/19 06:27:19;;;;;;;7.95;2.90;;;;;;;4.31;75.80;101975.47;7398515;19;20031;-65
2023/04/19 06:29:47;;;;;;;5.95;2.70;;;;;;;4.36;75.77;101966.06;7397856;19;20030;-66
2023/04/19 06:32:16;;;;;;;7.30;2.78;;;;;;;4.41;75.87;101976.56;7400073;19;20018;-65
2023/04/19 06:34:44;;;;;;;4.78;3.05;;;;;;;4.45;75.33;101969.69;7397886;19;20372;-66
2023/04/19 06:37:13;;;;;;;3.20;2.50;;;;;;;4.51;75.36;101972.44;7399688;19;20014;-65
2023/04/19 06:39:41;;;;;;;6.65;2.65;;;;;;;4.55;74.22;101984.69;7397746;19;20031;-65
2023/04/19 06:42:12;;;;;;;6.38;3.17;;;;;;;4.59;74.30;101972.63;7399487;19;20019;-67
2023/04/19 06:44:41;;;;;;;4.00;2.75;;;;;;;4.62;74.29;101965.78;7397213;19;20542;-67
2023/04/19 06:47:09;;;;;;;5.85;2.58;;;;;;;4.67;74.68;101966.75;7399760;19;20070;-68
2023/04/19 06:49:38;;;;;;;6.30;2.53;;;;;;;4.72;73.67;101959.94;7399950;19;20019;-67
2023/04/19 06:52:06;;;;;;;5.13;3.30;;;;;;;4.79;74.07;101957.47;7399651;19;20063;-69
2023/04/19 06:54:35;;;;;;;3.90;2.80;;;;;;;4.84;74.12;101958.44;7397004;19;20041;-67
2023/04/19 06:57:03;;;;;;;7.53;3.00;;;;;;;4.90;74.07;101961.19;7399201;19;20032;-67
2023/04/19 06:59:38;;;;;;;4.85;2.60;;;;;;;4.97;72.84;101959.59;7396989;19;20014;-67
2023/04/19 07:02:07;;;;;;;8.70;3.25;;;;;;;5.04;73.35;101953.66;7399995;19;20025;-67
2023/04/19 07:04:35;;;;;;;7.07;3.17;;;;;;;5.10;73.14;101945.13;7396921;19;20024;-66
2023/04/19 07:07:04;;;;;;;6.72;2.80;;;;;;;5.16;72.78;101940.03;7399009;19;20026;-66
2023/04/19 07:09:33;;;;;;;5.50;3.00;;;;;;;5.23;72.38;101949.69;7397278;19;20090;-68
2023/04/19 07:12:01;;;;;;;5.72;2.53;;;;;;;5.31;71.59;101931.66;7398816;19;20392;-67
2023/04/19 07:14:29;;;;;;;6.50;3.25;;;;;;;5.38;70.42;101936.13;7396858;19;20018;-66
2023/04/19 07:17:01;;;;;;;6.20;2.45;;;;;;;5.45;70.81;101935.38;7397793;19;20014;-66
2023/04/19 07:19:30;;;;;;;4.05;2.65;;;;;;;5.52;69.81;101928.56;7396634;19;20553;-66
2023/04/19 07:21:58;;;;;;;4.40;2.20;;;;;;;5.59;69.02;101930.44;7396313;19;20018;-66
2023/04/19 07:24:29;;;;;;;8.55;2.78;;;;;;;5.65;70.07;101925.34;7396890;19;20428;-65
2023/04/19 07:26:57;;;;;;;6.70;2.50;;;;;;;5.73;69.48;101928.06;7397294;19;20013;-65
2023/04/19 07:29:26;;;;;;;4.97;2.78;;;;;;;5.81;68.63;101925.59;7398094;19;20489;-66
2023/04/19 07:31:55;;;;;;;4.82;2.00;;;;;;;5.90;66.47;101928.34;7395498;19;20018;-67
2023/04/19 07:34:26;;;;;;;5.47;2.38;;;;;;;5.99;67.92;101914.63;7395916;19;20018;-67
2023/04/19 07:36:54;;;;;;;5.32;2.42;;;;;;;6.07;66.42;101917.38;7398852;19;20018;-67
2023/04/19 07:39:23;;;;;;;5.50;2.22;;;;;;;6.13;65.97;101915.75;7396088;19;20084;-67
2023/04/19 07:41:51;;;;;;;3.75;2.10;;;;;;;6.20;65.97;101919.31;7398345;19;20022;-67
2023/04/19 07:44:20;;;;;;;4.93;2.50;;;;;;;6.27;64.16;101902.03;7396413;19;20031;-67
2023/04/19 07:46:48;;;;;;;8.00;2.33;;;;;;;6.33;66.37;101895.19;7397423;19;20014;-66
2023/04/19 07:49:17;;;;;;;4.80;2.60;;;;;;;6.42;65.14;101909.19;7398588;19;20014;-67
2023/04/19 07:51:48;;;;;;;3.42;2.63;;;;;;;6.48;63.77;101898.84;7397730;19;20461;-67
2023/04/19 07:54:19;;;;;;;5.10;2.00;;;;;;;6.55;64.00;101905.91;7395659;19;20018;-67
2023/04/19 07:56:47;;;;;;;3.72;2.00;;;;;;;6.64;63.76;101895.59;7398222;19;20022;-66
2023/04/19 07:59:16;;;;;;;5.82;2.22;;;;;;;6.72;64.20;101892.22;7396084;19;20010;-67
2023/04/19 08:01:51;;;;;;;4.32;2.22;;;;;;;6.80;62.03;101886.25;7397501;19;20245;-67
2023/04/19 08:04:21;;;;;;;6.60;2.17;;;;;;;6.90;61.81;101891.56;7394951;19;20022;-67
2023/04/19 08:06:52;;;;;;;6.20;2.15;;;;;;;6.99;59.04;101894.28;7394900;19;20527;-67
2023/04/19 08:09:21;;;;;;;6.03;2.30;;;;;;;7.06;58.56;101892.63;7398088;19;20022;-68
2023/04/19 08:11:49;;;;;;;6.57;2.40;;;;;;;7.11;59.16;101890.94;7396589;19;20392;-67
2023/04/19 08:14:18;;;;;;;3.38;2.05;;;;;;;7.20;58.33;101893.63;7395135;19;20022;-68
2023/04/19 08:16:46;;;;;;;3.65;2.17;;;;;;;7.26;57.34;101880.66;7397043;19;20023;-68
2023/04/19 08:19:15;;;;;;;3.88;2.50;;;;;;;7.33;56.71;101879.88;7395683;19;20432;-68
2023/04/19 08:21:43;;;;;;;4.07;2.67;;;;;;;7.38;56.98;101873.81;7394942;19;20019;-68
2023/04/19 08:24:14;;;;;;;3.63;2.33;;;;;;;7.45;57.05;101870.41;7394781;19;20039;-68
2023/04/19 08:26:43;;;;;;;2.80;1.77;;;;;;;7.52;58.11;101864.38;7394491;19;20379;-68
2023/04/19 08:29:11;;;;;;;3.28;1.92;;;;;;;7.61;55.61;101867.06;7395788;19;20015;-67
2023/04/19 08:31:40;;;;;;;6.15;2.30;;;;;;;7.69;55.59;101859.28;7396602;19;20032;-67
2023/04/19 08:34:08;;;;;;;7.03;1.85;;;;;;;7.76;55.81;101861.09;7394952;19;20086;-67
2023/04/19 08:36:37;;;;;;;2.85;1.70;;;;;;;7.88;54.56;101835.91;7396168;19;20035;-67
2023/04/19 08:39:06;;;;;;;3.55;2.10;;;;;;;7.95;55.09;101845.56;7394623;19;20078;-67
2023/04/19 08:41:37;;;;;;;6.50;2.30;;;;;;;8.01;52.87;101845.56;7395564;19;20399;-68
2023/04/19 08:44:07;;;;;;;6.75;2.53;;;;;;;8.09;54.43;101833.44;7392669;19;20435;-67
2023/04/19 08:46:36;;;;;;;7.78;2.00;;;;;;;8.14;52.42;101846.56;7396320;19;20018;-68
2023/04/19 08:49:07;;;;;;;4.50;2.10;;;;;;;8.18;51.92;101832.63;7395992;19;20022;-67
2023/04/19 08:51:36;;;;;;;6.22;2.20;;;;;;;8.27;52.24;101832.66;7395858;19;20065;-68
2023/04/19 08:54:07;;;;;;;3.13;2.17;;;;;;;8.36;52.81;101833.59;7394340;19;20022;-67
2023/04/19 08:56:38;;;;;;;11.55;2.55;;;;;;;8.42;50.02;101831.88;7394453;19;20431;-67
2023/04/19 08:59:07;;;;;;;6.22;2.25;;;;;;;8.51;51.21;101841.53;7394075;19;20090;-68
2023/04/19 09:01:35;;;;;;;3.80;2.17;;;;;;;8.58;50.18;101834.56;7395021;19;20031;-67
2023/04/19 09:04:04;;;;;;;3.88;2.17;;;;;;;8.63;49.78;101849.44;7394030;19;20022;-68
2023/04/19 09:06:37;;;;;;;5.15;2.25;;;;;;;8.72;50.13;101834.63;7393871;19;20018;-67
2023/04/19 09:09:19;;;;;;;3.53;2.00;;;;;;;8.80;49.56;101825.94;7395442;19;20014;-67
2023/04/19 09:11:51;;;;;;;7.43;2.67;;;;;;;8.91;49.83;101812.88;7395000;19;20078;-67
2023/04/19 09:14:21;;;;;;;7.15;2.80;;;;;;;9.00;50.23;101814.66;7393545;19;20023;-67
2023/04/19 09:16:51;;;;;;;7.47;2.90;;;;;;;9.04;50.38;101829.50;7396799;19;20019;-67
2023/04/19 09:19:19;;;;;;;5.00;2.35;;;;;;;9.09;48.60;101824.28;7393677;19;20026;-68
2023/04/19 09:21:50;;;;;;;4.72;2.70;;;;;;;9.16;50.58;101805.06;7393567;19;20035;-67
2023/04/19 09:24:19;;;;;;;4.40;2.67;;;;;;;9.26;51.62;101800.72;7393704;19;20026;-70
2023/04/19 09:26:58;;;;;;;4.65;2.55;;;;;;;9.37;49.90;101796.34;7394129;19;20006;-67
2023/04/19 09:29:26;;;;;;;5.53;2.58;;;;;;;9.48;51.62;101791.13;7395440;19;20026;-67
2023/04/19 09:32:00;;;;;;;6.15;3.17;;;;;;;9.60;51.21;101787.63;7395164;19;20074;-69
2023/04/19 09:34:29;;;;;;;4.07;2.83;;;;;;;9.72;50.41;101784.13;7392949;19;20019;-67
2023/04/19 09:36:58;;;;;;;4.32;2.10;;;;;;;9.77;51.21;101777.13;7394736;19;20023;-68
2023/04/19 09:39:35;;;;;;;7.47;2.90;;;;;;;9.82;49.99;101779.72;7392836;19;20481;-67
2023/04/19 09:42:06;;;;;;;6.40;3.15;;;;;;;9.89;50.86;101774.44;7394422;19;20094;-67
2023/04/19 09:44:35;;;;;;;6.07;3.00;;;;;;;9.95;50.56;101768.34;7392363;19;20039;-67
2023/04/19 09:47:04;;;;;;;4.75;2.65;;;;;;;10.01;50.64;101749.09;7394274;19;20023;-65
2023/04/19 09:49:32;;;;;;;6.72;3.22;;;;;;;10.09;50.77;101747.31;7392104;19;20024;-67
2023/04/19 09:52:01;;;;;;;3.78;2.80;;;;;;;10.17;47.67;101745.53;7394428;19;20018;-68
2023/04/19 09:54:31;;;;;;;7.63;2.50;;;;;;;10.25;48.46;101751.63;7392109;19;20485;-67
2023/04/19 09:56:59;;;;;;;6.45;2.80;;;;;;;10.36;49.09;101740.25;7397377;19;20018;-67
2023/04/19 09:59:31;;;;;;;6.57;3.15;;;;;;;10.48;48.88;101739.31;7398109;19;20022;-68
2023/04/19 10:02:02;;;;;;;6.07;3.08;;;;;;;10.59;49.49;101738.38;7401191;19;20033;-68
2023/04/19 10:04:31;;;;;;;7.35;3.20;;;;;;;10.71;49.41;101736.56;7399219;19;20014;-68
2023/04/19 10:06:59;;;;;;;8.13;3.13;;;;;;;10.78;47.17;101733.00;7398201;19;20448;-68
2023/04/19 10:09:29;;;;;;;3.63;2.60;;;;;;;10.81;46.80;101742.63;7397524;19;20417;-66
2023/04/19 10:11:59;;;;;;;8.65;3.47;;;;;;;10.82;46.01;101726.84;7401253;19;20019;-67
2023/04/19 10:14:38;;;;;;;6.57;3.33;;;;;;;10.82;47.13;101736.50;7398893;19;20015;-67
2023/04/19 10:17:07;;;;;;;6.80;2.92;;;;;;;10.80;47.58;101719.88;7400894;19;20103;-68
2023/04/19 10:19:38;;;;;;;5.57;3.05;;;;;;;10.80;47.23;101715.47;7398745;19;20024;-67
2023/04/19 10:22:08;;;;;;;8.18;2.75;;;;;;;10.84;46.25;101718.97;7404922;19;20031;-70
2023/04/19 10:24:36;;;;;;;5.10;3.00;;;;;;;10.92;46.98;101711.91;7399862;19;20036;-69
2023/04/19 10:27:13;;;;;;;8.93;3.38;;;;;;;10.98;45.71;101709.25;7398519;19;20020;-68
2023/04/19 10:30:02;;;;;;;6.40;3.30;;;;;;;11.11;44.82;101702.13;7400722;19;20039;-68
2023/04/19 10:32:32;;;;;;;6.10;3.10;;;;;;;11.26;46.14;101703.75;7398155;19;20053;-68
2023/04/19 10:35:04;;;;;;;6.90;2.65;;;;;;;11.40;46.14;101706.25;7400649;19;20014;-68
2023/04/19 10:37:33;;;;;;;9.63;4.82;;;;;;;11.54;47.31;101699.09;7397863;19;20093;-68
2023/04/19 10:40:03;;;;;;;6.68;3.15;;;;;;;11.65;46.27;101696.34;7398449;19;20018;-67
2023/04/19 10:43:04;;;;;;;9.00;2.95;;;;;;;11.70;43.16;101709.41;7400033;19;20011;-67
2023/04/19 10:45:39;;;;;;;6.20;2.47;;;;;;;11.61;43.03;101699.88;7398472;19;20022;-68
2023/04/19 10:48:08;;;;;;;5.88;3.22;;;;;;;11.46;42.78;101690.41;7400425;19;20030;-67
2023/04/19 10:51:01;;;;;;;7.13;3.33;;;;;;;11.34;43.57;101701.06;7399234;19;20499;-68
2023/04/19 10:53:45;;;;;;;6.55;3.00;;;;;;;11.20;43.26;101698.56;7398881;19;20022;-68
2023/04/19 10:56:14;;;;;;;7.75;3.00;;;;;;;11.15;44.58;101695.97;7399105;19;20018;-68
2023/04/19 10:59:20;;;;;;;8.88;3.35;;;;;;;11.09;44.69;101680.25;7397130;19;20014;-66
2023/04/19 11:01:56;;;;;;;5.78;3.05;;;;;;;11.15;46.22;101687.22;7398828;19;20039;-67
2023/04/19 11:04:46;;;;;;;8.15;3.67;;;;;;;11.25;44.94;101697.59;7396074;19;20073;-67
2023/04/19 11:07:17;;;;;;;6.22;2.90;;;;;;;11.34;46.08;101680.88;7396559;19;20010;-67
2023/04/19 11:09:47;;;;;;;6.60;3.58;;;;;;;11.39;45.93;101676.47;7396066;19;20015;-68
2023/04/19 11:12:17;;;;;;;6.35;3.17;;;;;;;11.48;46.34;101678.13;7397662;19;20028;-68
2023/04/19 11:14:47;;;;;;;8.63;3.92;;;;;;;11.57;46.58;101664.91;7396233;19;20032;-69
2023/04/19 11:17:24;;;;;;;7.60;2.80;;;;;;;11.67;44.93;101668.28;7400229;19;20039;-68
2023/04/19 11:20:05;;;;;;;4.90;3.00;;;;;;;11.73;43.19;101672.59;7395321;19;20019;-68
2023/04/19 11:22:35;;;;;;;7.40;3.10;;;;;;;11.74;45.42;101669.09;7395285;19;20018;-69
2023/04/19 11:25:07;;;;;;;9.65;3.28;;;;;;;11.73;43.26;101677.84;7395565;19;20098;-69
2023/04/19 11:27:36;;;;;;;8.65;2.92;;;;;;;11.71;43.30;101670.00;7396651;19;20028;-69
2023/04/19 11:30:07;;;;;;;7.25;2.83;;;;;;;11.74;45.24;101671.72;7398098;19;20481;-68
2023/04/19 11:32:38;;;;;;;4.22;2.80;;;;;;;11.70;42.88;101668.25;7397211;19;20011;-67
2023/04/19 11:35:09;;;;;;;3.65;2.40;;;;;;;11.69;43.80;101658.63;7397887;19;20011;-67
2023/04/19 11:37:39;;;;;;;6.10;3.10;;;;;;;11.75;45.46;101647.16;7395743;19;20031;-68
2023/04/19 11:40:09;;;;;;;7.28;3.22;;;;;;;11.86;43.20;101652.28;7396565;19;20082;-68
2023/04/19 11:42:38;;;;;;;6.32;2.70;;;;;;;11.94;43.96;101645.16;7396028;19;20014;-68
2023/04/19 11:45:07;;;;;;;4.50;2.35;;;;;;;11.97;42.59;101646.94;7397870;19;20019;-67